Reecon Whale — 9HA2885 — position and weather

sailwx.info

Track history (hours):
 
Tides and Currents Weather Stations Pressure Air Temp Water Temp Dewpoint Dewpoint Depression Visibility Wind Speed Wind Dir Waves Ship Positions

Reecon Whale

Last reported at 2016-Feb-10 02:19 UTC. Time now 2016-Feb-14 23:12 UTC.
Position N 36°33' E 013°38'.

Length 145 m; draft 8.9 m.

Type: Ship. MMSI: 256579000.

Date/timePositionNaut miles runAvg speedWind from/ knotsBaromVisibWave heightAir tempDewpointWater temp
2016-Feb-10 02:19N 36°33' E 013°38'8 9.8
2016-Feb-10 01:33N 36°31' E 013°47'10 9.9
2016-Feb-10 00:33N 36°28' E 013°58'1010.1
2016-Feb-09 23:32N 36°25' E 014°11'1010.5
2016-Feb-09 22:33N 36°22' E 014°23'1110.8
2016-Feb-09 21:33N 36°21' E 014°36'1110.7
2016-Feb-09 20:33N 36°20' E 014°50'429 9.5
2016-Feb-07 23:33N 37°26' E 023°40'1111.4
2016-Feb-07 22:33N 37°37' E 023°42'1110.8
2016-Feb-07 21:33N 37°47' E 023°38'10 9.8
2016-Feb-07 20:33N 37°57' E 023°36'1 0.6
2016-Feb-07 19:32N 37°57' E 023°35'0 0.0
2016-Feb-07 18:32N 37°57' E 023°35'0 0.0
2016-Feb-07 17:32N 37°57' E 023°35'0 0.0
2016-Feb-07 16:29N 37°57' E 023°35'0 0.0
2016-Feb-07 15:32N 37°57' E 023°35'0 0.0
2016-Feb-07 14:32N 37°57' E 023°35'0 0.0
2016-Feb-07 13:29N 37°57' E 023°35'0 0.0
2016-Feb-07 12:32N 37°57' E 023°35'0 0.0
2016-Feb-07 11:32N 37°57' E 023°35'0 0.0
2016-Feb-07 10:32N 37°57' E 023°35'0 0.0
2016-Feb-07 09:32N 37°57' E 023°35'0 0.0
2016-Feb-07 08:32N 37°57' E 023°35'0 0.0
2016-Feb-07 07:32N 37°57' E 023°35'0 0.0
2016-Feb-07 06:29N 37°57' E 023°35'0 0.0
2016-Feb-07 05:32N 37°57' E 023°35'0 0.0
2016-Feb-07 04:32N 37°57' E 023°35'0 0.0
2016-Feb-07 03:32N 37°57' E 023°35'0 0.0
2016-Feb-07 02:32N 37°57' E 023°35'0 0.0
2016-Feb-07 01:32N 37°57' E 023°35'0 0.0
2016-Feb-07 00:32N 37°57' E 023°35'0 0.0
2016-Feb-06 23:32N 37°57' E 023°35'0 0.0
2016-Feb-06 22:32N 37°57' E 023°35'0 0.0
2016-Feb-06 21:32N 37°57' E 023°35'0 0.0
2016-Feb-06 20:32N 37°57' E 023°35'0 0.0
2016-Feb-06 19:32N 37°57' E 023°35'0 0.0
2016-Feb-06 18:32N 37°57' E 023°35'0 0.0
2016-Feb-06 17:32N 37°57' E 023°35'0 0.0
2016-Feb-06 16:32N 37°57' E 023°35'0 0.0
2016-Feb-06 15:32N 37°57' E 023°35'0 0.0
2016-Feb-06 14:32N 37°57' E 023°35'0 0.0
2016-Feb-06 13:32N 37°57' E 023°35'0 0.0
2016-Feb-06 12:32N 37°57' E 023°35'0 0.4
2016-Feb-06 11:33N 37°57' E 023°35'6 5.7
2016-Feb-06 10:33N 37°52' E 023°39'1010.4
2016-Feb-06 09:33N 37°42' E 023°44'1110.5
2016-Feb-06 08:33N 37°32' E 023°44'1010.2
2016-Feb-06 07:33N 37°22' E 023°41'430 9.6
2016-Feb-04 10:33N 36°20' E 014°50'1010.5
2016-Feb-04 09:33N 36°20' E 014°36'1111.2
2016-Feb-04 08:32N 36°22' E 014°23'1313.5
2016-Feb-04 07:33N 36°25' E 014°07'1111.2
2016-Feb-04 06:33N 36°28' E 013°53'1111.0
2016-Feb-04 05:33N 36°32' E 013°40'  
Track history (hours):
 
Tides and Currents Weather Stations Pressure Air Temp Water Temp Dewpoint Dewpoint Depression Visibility Wind Speed Wind Dir Waves Ship Positions

Reecon Whale

Last reported at 2016-Feb-10 02:19 UTC. Time now 2016-Feb-14 23:12 UTC.
Position N 36°33' E 013°38'.

Length 145 m; draft 8.9 m.

Type: Ship. MMSI: 256579000.

Date/timePositionNaut miles runAvg speedWind from/ knotsBaromVisibWave heightAir tempDewpointWater temp
2016-Feb-10 02:19N 36°33' E 013°38'8 9.8
2016-Feb-10 01:33N 36°31' E 013°47'10 9.9
2016-Feb-10 00:33N 36°28' E 013°58'1010.1
2016-Feb-09 23:32N 36°25' E 014°11'1010.5
2016-Feb-09 22:33N 36°22' E 014°23'1110.8
2016-Feb-09 21:33N 36°21' E 014°36'1110.7
2016-Feb-09 20:33N 36°20' E 014°50'429 9.5
2016-Feb-07 23:33N 37°26' E 023°40'1111.4
2016-Feb-07 22:33N 37°37' E 023°42'1110.8
2016-Feb-07 21:33N 37°47' E 023°38'10 9.8
2016-Feb-07 20:33N 37°57' E 023°36'1 0.6
2016-Feb-07 19:32N 37°57' E 023°35'0 0.0
2016-Feb-07 18:32N 37°57' E 023°35'0 0.0
2016-Feb-07 17:32N 37°57' E 023°35'0 0.0
2016-Feb-07 16:29N 37°57' E 023°35'0 0.0
2016-Feb-07 15:32N 37°57' E 023°35'0 0.0
2016-Feb-07 14:32N 37°57' E 023°35'0 0.0
2016-Feb-07 13:29N 37°57' E 023°35'0 0.0
2016-Feb-07 12:32N 37°57' E 023°35'0 0.0
2016-Feb-07 11:32N 37°57' E 023°35'0 0.0
2016-Feb-07 10:32N 37°57' E 023°35'0 0.0
2016-Feb-07 09:32N 37°57' E 023°35'0 0.0
2016-Feb-07 08:32N 37°57' E 023°35'0 0.0
2016-Feb-07 07:32N 37°57' E 023°35'0 0.0
2016-Feb-07 06:29N 37°57' E 023°35'0 0.0
2016-Feb-07 05:32N 37°57' E 023°35'0 0.0
2016-Feb-07 04:32N 37°57' E 023°35'0 0.0
2016-Feb-07 03:32N 37°57' E 023°35'0 0.0
2016-Feb-07 02:32N 37°57' E 023°35'0 0.0
2016-Feb-07 01:32N 37°57' E 023°35'0 0.0
2016-Feb-07 00:32N 37°57' E 023°35'0 0.0
2016-Feb-06 23:32N 37°57' E 023°35'0 0.0
2016-Feb-06 22:32N 37°57' E 023°35'0 0.0
2016-Feb-06 21:32N 37°57' E 023°35'0 0.0
2016-Feb-06 20:32N 37°57' E 023°35'0 0.0
2016-Feb-06 19:32N 37°57' E 023°35'0 0.0
2016-Feb-06 18:32N 37°57' E 023°35'0 0.0
2016-Feb-06 17:32N 37°57' E 023°35'0 0.0
2016-Feb-06 16:32N 37°57' E 023°35'0 0.0
2016-Feb-06 15:32N 37°57' E 023°35'0 0.0
2016-Feb-06 14:32N 37°57' E 023°35'0 0.0
2016-Feb-06 13:32N 37°57' E 023°35'0 0.0
2016-Feb-06 12:32N 37°57' E 023°35'0 0.4
2016-Feb-06 11:33N 37°57' E 023°35'6 5.7
2016-Feb-06 10:33N 37°52' E 023°39'1010.4
2016-Feb-06 09:33N 37°42' E 023°44'1110.5
2016-Feb-06 08:33N 37°32' E 023°44'1010.2
2016-Feb-06 07:33N 37°22' E 023°41'430 9.6
2016-Feb-04 10:33N 36°20' E 014°50'1010.5
2016-Feb-04 09:33N 36°20' E 014°36'1111.2
2016-Feb-04 08:32N 36°22' E 014°23'1313.5
2016-Feb-04 07:33N 36°25' E 014°07'1111.2
2016-Feb-04 06:33N 36°28' E 013°53'1111.0
2016-Feb-04 05:33N 36°32' E 013°40'  

Dump ship's entire track history